createdAt,value
2018-09-28T00:01:59.104Z,8.99
2018-09-28T00:04:29.250Z,8.91
2018-09-28T00:06:59.727Z,8.85
2018-09-28T00:09:29.853Z,8.82
2018-09-28T00:11:59.913Z,8.80
2018-09-28T00:14:29.935Z,8.76
2018-09-28T00:17:00.041Z,8.74
2018-09-28T00:19:30.266Z,8.82
2018-09-28T00:22:00.264Z,8.82
2018-09-28T00:24:30.440Z,8.78
2018-09-28T00:27:00.436Z,8.68
2018-09-28T00:29:30.468Z,8.63
2018-09-28T00:32:00.513Z,8.58
2018-09-28T00:34:30.558Z,8.57
2018-09-28T00:37:00.579Z,8.57
2018-09-28T00:39:31.065Z,8.53
2018-09-28T00:42:01.155Z,8.48
2018-09-28T00:44:31.150Z,8.46
2018-09-28T00:47:01.207Z,8.47
2018-09-28T00:49:31.199Z,8.50
2018-09-28T00:52:01.271Z,8.49
2018-09-28T00:54:31.311Z,8.44
2018-09-28T00:57:01.582Z,8.44
2018-09-28T00:59:31.644Z,8.40
2018-09-28T01:02:01.634Z,8.41
2018-09-28T01:04:31.750Z,8.47
2018-09-28T01:07:01.803Z,8.43
2018-09-28T01:09:31.814Z,8.46
2018-09-28T01:12:01.836Z,8.46
2018-09-28T01:14:31.874Z,8.44
2018-09-28T01:17:01.880Z,8.36
2018-09-28T01:19:31.909Z,8.35
2018-09-28T01:22:01.963Z,8.31
2018-09-28T01:24:32.047Z,8.30
2018-09-28T01:27:02.142Z,8.31
2018-09-28T01:29:32.389Z,8.27
2018-09-28T01:32:02.384Z,8.26
2018-09-28T01:34:32.431Z,8.23
2018-09-28T01:37:02.475Z,8.24
2018-09-28T01:39:32.715Z,8.20
2018-09-28T01:42:02.739Z,8.14
2018-09-28T01:44:32.805Z,8.13
2018-09-28T01:47:02.782Z,8.12
2018-09-28T01:49:32.796Z,8.13
2018-09-28T01:52:02.865Z,8.13
2018-09-28T01:54:33.027Z,8.09
2018-09-28T01:57:03.069Z,8.07
2018-09-28T01:59:33.285Z,8.02
2018-09-28T02:02:03.299Z,8.01
2018-09-28T02:04:33.399Z,7.97
2018-09-28T02:07:03.463Z,7.95
2018-09-28T02:09:33.475Z,7.93
2018-09-28T02:12:03.481Z,7.93
2018-09-28T02:14:33.861Z,7.93
2018-09-28T02:17:03.824Z,7.97
2018-09-28T02:19:34.768Z,7.95
2018-09-28T02:22:04.809Z,7.95
2018-09-28T02:24:34.989Z,7.91
2018-09-28T02:27:05.293Z,7.86
2018-09-28T02:29:35.368Z,7.86
2018-09-28T02:32:05.544Z,7.85
2018-09-28T02:34:35.604Z,7.84
2018-09-28T02:37:05.600Z,7.84
2018-09-28T02:39:35.740Z,7.82
2018-09-28T02:42:05.753Z,7.76
2018-09-28T02:44:35.809Z,7.70
2018-09-28T02:47:05.917Z,7.72
2018-09-28T02:49:35.967Z,7.73
2018-09-28T02:52:06.029Z,7.73
2018-09-28T02:54:36.083Z,7.71
2018-09-28T02:57:06.103Z,7.70
2018-09-28T02:59:36.705Z,7.67
2018-09-28T03:02:06.714Z,7.67
2018-09-28T03:04:36.789Z,7.64
2018-09-28T03:07:06.886Z,7.64
2018-09-28T03:09:37.794Z,7.59
2018-09-28T03:12:07.899Z,7.54
2018-09-28T03:14:37.993Z,7.50
2018-09-28T03:17:08.115Z,7.45
2018-09-28T03:19:38.416Z,7.39
2018-09-28T03:22:08.507Z,7.37
2018-09-28T03:24:38.511Z,7.32
2018-09-28T03:27:08.547Z,7.31
2018-09-28T03:29:38.618Z,7.31
2018-09-28T03:32:09.081Z,7.36
2018-09-28T03:34:39.065Z,7.32
2018-09-28T03:37:09.477Z,7.27
2018-09-28T03:39:39.619Z,7.25
2018-09-28T03:42:09.666Z,7.20
2018-09-28T03:44:39.664Z,7.14
2018-09-28T03:47:09.702Z,7.13
2018-09-28T03:49:39.850Z,7.12
2018-09-28T03:52:09.963Z,7.06
2018-09-28T03:54:39.973Z,7.04
2018-09-28T03:57:10.007Z,7.00
2018-09-28T03:59:40.106Z,6.97
2018-09-28T04:02:10.183Z,6.95
2018-09-28T04:04:40.311Z,6.89
2018-09-28T04:07:10.380Z,6.86
2018-09-28T04:09:40.434Z,6.85
2018-09-28T04:12:10.414Z,6.84
2018-09-28T04:14:40.595Z,6.88
2018-09-28T04:17:10.978Z,6.90
2018-09-28T04:19:40.951Z,6.88
2018-09-28T04:22:11.152Z,6.82
2018-09-28T04:24:41.282Z,6.79
2018-09-28T04:27:15.993Z,6.75
2018-09-28T04:29:46.091Z,6.75
2018-09-28T04:32:16.144Z,6.70
2018-09-28T04:34:46.458Z,6.73
2018-09-28T04:37:16.585Z,6.68
2018-09-28T04:39:46.648Z,6.66
2018-09-28T04:42:16.745Z,6.62
2018-09-28T04:44:46.825Z,6.60
2018-09-28T04:47:16.817Z,6.61
2018-09-28T04:49:46.836Z,6.59
2018-09-28T04:52:16.940Z,6.57
2018-09-28T04:54:47.298Z,6.56
2018-09-28T04:57:17.301Z,6.59
2018-09-28T04:59:47.366Z,6.60
2018-09-28T05:02:18.201Z,6.69
2018-09-28T05:04:48.292Z,6.69
2018-09-28T05:07:18.321Z,6.69
2018-09-28T05:09:49.116Z,6.71
2018-09-28T05:12:19.128Z,6.70
2018-09-28T05:14:49.723Z,6.66
2018-09-28T05:17:19.845Z,6.64
2018-09-28T05:19:49.892Z,6.63
2018-09-28T05:22:20.620Z,6.66
2018-09-28T05:24:50.701Z,6.65
2018-09-28T05:27:21.090Z,6.70
2018-09-28T05:29:51.575Z,6.74
2018-09-28T05:32:23.057Z,6.80
2018-09-28T05:34:56.084Z,6.84
2018-09-28T05:37:26.668Z,6.87
2018-09-28T05:39:57.951Z,6.87
2018-09-28T05:42:28.972Z,6.92
2018-09-28T05:45:00.480Z,6.96
2018-09-28T05:47:30.752Z,6.98
2018-09-28T05:50:01.196Z,7.00
2018-09-28T05:52:31.703Z,7.09
2018-09-28T05:55:01.916Z,7.20
2018-09-28T05:57:32.031Z,7.28
2018-09-28T06:00:07.837Z,7.40
2018-09-28T06:02:43.225Z,7.53
2018-09-28T06:05:18.821Z,7.64
2018-09-28T06:07:49.793Z,7.76
2018-09-28T06:10:23.451Z,7.89
2018-09-28T06:12:53.458Z,8.03
2018-09-28T06:15:24.122Z,8.15
2018-09-28T06:17:54.198Z,8.32
2018-09-28T06:20:24.912Z,8.50
2018-09-28T06:22:55.566Z,8.62
2018-09-28T06:25:26.870Z,8.79
2018-09-28T06:27:57.960Z,8.96
2018-09-28T06:30:28.022Z,9.13
2018-09-28T06:32:58.626Z,9.32
2018-09-28T06:35:30.241Z,9.52
2018-09-28T06:38:01.324Z,9.71
2018-09-28T06:40:33.246Z,9.88
2018-09-28T06:43:03.593Z,10.06
2018-09-28T06:45:34.791Z,10.19
2018-09-28T06:48:05.112Z,10.30
2018-09-28T06:50:36.304Z,10.45
2018-09-28T06:53:07.458Z,10.62
2018-09-28T06:55:38.394Z,10.83
2018-09-28T06:58:08.597Z,10.98
2018-09-28T07:00:39.657Z,11.25
2018-09-28T07:03:10.893Z,11.47
2018-09-28T07:05:41.137Z,11.66
2018-09-28T07:08:11.298Z,11.77
2018-09-28T07:10:42.558Z,12.05
2018-09-28T07:13:12.835Z,12.36
2018-09-28T07:15:44.135Z,12.61
2018-09-28T07:18:15.348Z,12.82
2018-09-28T07:20:45.791Z,13.02
2018-09-28T07:23:16.369Z,13.36
2018-09-28T07:25:47.159Z,13.68
2018-09-28T07:28:18.414Z,13.97
2018-09-28T07:30:50.455Z,14.07
2018-09-28T07:33:20.600Z,14.30
2018-09-28T07:35:51.341Z,14.44
2018-09-28T07:38:21.586Z,14.56
2018-09-28T07:40:52.972Z,14.77
2018-09-28T07:43:23.366Z,14.99
2018-09-28T07:45:54.724Z,15.23
2018-09-28T07:48:26.165Z,15.48
2018-09-28T07:50:56.715Z,15.76
2018-09-28T07:53:28.226Z,16.10
2018-09-28T07:55:59.335Z,16.34
2018-09-28T07:58:30.773Z,16.70
2018-09-28T08:01:00.958Z,16.97
2018-09-28T08:03:31.754Z,16.83
2018-09-28T08:06:02.278Z,16.83
2018-09-28T08:08:32.668Z,17.11
2018-09-28T08:11:02.930Z,17.27
2018-09-28T08:13:33.909Z,17.45
2018-09-28T08:16:04.383Z,17.65
2018-09-28T08:18:34.662Z,17.43
2018-09-28T08:21:05.537Z,17.71
2018-09-28T08:23:37.609Z,18.16
2018-09-28T08:26:08.508Z,18.46
2018-09-28T08:28:39.453Z,18.64
2018-09-28T08:31:10.279Z,18.82
2018-09-28T08:33:41.831Z,18.98
2018-09-28T08:36:12.113Z,19.26
2018-09-28T08:38:43.456Z,19.41
2018-09-28T08:41:14.384Z,19.74
2018-09-28T08:43:47.074Z,19.90
2018-09-28T08:46:17.282Z,19.85
2018-09-28T08:48:48.548Z,20.14
2018-09-28T08:51:19.481Z,20.30
2018-09-28T08:53:50.425Z,20.35
2018-09-28T08:56:22.122Z,20.53
2018-09-28T08:58:53.195Z,20.82
2018-09-28T09:01:23.363Z,21.05
2018-09-28T09:03:55.976Z,21.23
2018-09-28T09:06:27.476Z,21.46
2018-09-28T09:09:01.108Z,21.70
2018-09-28T09:11:32.170Z,21.82
2018-09-28T09:14:03.309Z,21.93
2018-09-28T09:16:34.995Z,21.84
2018-09-28T09:19:06.367Z,22.25
2018-09-28T09:21:38.219Z,22.90
2018-09-28T09:24:09.332Z,23.04
2018-09-28T09:26:40.632Z,23.39
2018-09-28T09:29:11.013Z,23.31
2018-09-28T09:31:41.239Z,23.30
2018-09-28T09:34:12.555Z,23.85
2018-09-28T09:36:43.636Z,24.27
2018-09-28T09:39:14.523Z,24.53
2018-09-28T09:41:45.941Z,23.96
2018-09-28T09:44:16.088Z,24.38
2018-09-28T09:46:48.604Z,25.31
2018-09-28T09:49:19.092Z,25.34
2018-09-28T09:51:50.023Z,24.27
2018-09-28T09:54:20.493Z,24.89
2018-09-28T09:56:51.688Z,25.90
2018-09-28T09:59:22.695Z,26.93
2018-09-28T10:01:57.979Z,27.38
2018-09-28T10:04:28.696Z,27.66
2018-09-28T10:06:59.553Z,27.85
2018-09-28T10:09:31.659Z,27.82
2018-09-28T10:12:01.964Z,27.49
2018-09-28T10:14:33.585Z,26.28
2018-09-28T10:17:05.479Z,26.17
2018-09-28T10:19:36.184Z,25.89
2018-09-28T10:22:09.455Z,26.28
2018-09-28T10:24:40.547Z,26.43
2018-09-28T10:27:11.064Z,27.19
2018-09-28T10:29:43.215Z,28.60
2018-09-28T10:32:15.319Z,29.45
2018-09-28T10:34:45.826Z,29.09
2018-09-28T10:37:17.017Z,29.11
2018-09-28T10:39:49.060Z,29.43
2018-09-28T10:42:19.575Z,29.49
2018-09-28T10:44:50.033Z,29.91
2018-09-28T10:47:20.977Z,30.00
2018-09-28T10:49:51.976Z,30.44
2018-09-28T10:52:23.421Z,29.82
2018-09-28T10:54:53.967Z,29.62
2018-09-28T10:57:25.125Z,30.55
2018-09-28T10:59:55.277Z,31.44
2018-09-28T11:02:26.593Z,31.23
2018-09-28T11:05:00.731Z,31.31
2018-09-28T11:07:32.181Z,32.29
2018-09-28T11:10:03.292Z,32.56
2018-09-28T11:12:33.621Z,32.40
2018-09-28T11:15:04.528Z,31.45
2018-09-28T11:17:34.977Z,30.78
2018-09-28T11:20:06.191Z,30.98
2018-09-28T11:22:36.627Z,30.77
2018-09-28T11:25:07.705Z,30.85
2018-09-28T11:27:38.820Z,31.06
2018-09-28T11:30:10.224Z,31.32
2018-09-28T11:32:40.485Z,29.64
2018-09-28T11:35:11.384Z,29.21
2018-09-28T11:37:42.085Z,30.15
2018-09-28T11:40:12.574Z,31.42
2018-09-28T11:42:43.350Z,30.62
2018-09-28T11:45:14.906Z,30.09
2018-09-28T11:47:45.401Z,30.40
2018-09-28T11:50:17.514Z,31.52
2018-09-28T11:52:49.481Z,31.17
2018-09-28T11:55:20.671Z,30.67
2018-09-28T11:57:51.823Z,30.22
2018-09-28T12:00:22.813Z,28.62
2018-09-28T12:02:53.512Z,29.42
2018-09-28T12:05:24.921Z,30.80
2018-09-28T12:07:55.064Z,31.87
2018-09-28T12:10:25.937Z,32.08
2018-09-28T12:12:56.554Z,32.04
2018-09-28T12:15:31.507Z,31.76
2018-09-28T12:18:03.472Z,30.95
2018-09-28T12:20:35.691Z,29.95
2018-09-28T12:23:06.733Z,31.00
2018-09-28T12:25:38.151Z,32.02
2018-09-28T12:28:10.372Z,32.72
2018-09-28T12:30:44.573Z,32.82
2018-09-28T12:33:21.332Z,32.40
2018-09-28T12:35:52.149Z,32.21
2018-09-28T12:38:23.798Z,32.57
2018-09-28T12:40:54.208Z,33.03
2018-09-28T12:43:25.471Z,31.68
2018-09-28T12:45:56.692Z,31.60
2018-09-28T12:48:26.875Z,31.08
2018-09-28T12:50:58.158Z,31.93
2018-09-28T12:53:29.189Z,32.65
2018-09-28T12:56:00.957Z,32.98
2018-09-28T12:58:34.145Z,32.32
2018-09-28T13:01:05.787Z,32.36
2018-09-28T13:03:36.000Z,32.89
2018-09-28T13:06:06.798Z,33.13
2018-09-28T13:08:38.787Z,33.73
2018-09-28T13:11:09.548Z,34.58
2018-09-28T13:13:41.944Z,34.30
2018-09-28T13:16:12.227Z,34.21
2018-09-28T13:18:44.875Z,33.85
2018-09-28T13:21:15.537Z,34.43
2018-09-28T13:23:46.671Z,34.62
2018-09-28T13:26:18.706Z,34.83
2018-09-28T13:28:49.925Z,35.33
2018-09-28T13:31:20.735Z,34.86
2018-09-28T13:33:52.222Z,33.85
2018-09-28T13:36:24.662Z,34.12
2018-09-28T13:38:56.977Z,34.02
2018-09-28T13:41:29.190Z,33.75
2018-09-28T13:43:59.902Z,33.59
2018-09-28T13:46:31.482Z,33.49
2018-09-28T13:49:02.083Z,32.78
2018-09-28T13:51:33.408Z,33.10
2018-09-28T13:54:03.990Z,32.55
2018-09-28T13:56:35.728Z,32.72
2018-09-28T13:59:06.104Z,32.61
2018-09-28T14:01:36.422Z,32.48
2018-09-28T14:04:07.675Z,32.01
2018-09-28T14:06:38.728Z,32.23
2018-09-28T14:09:10.024Z,32.63
2018-09-28T14:11:40.884Z,32.21
2018-09-28T14:14:11.330Z,31.78
2018-09-28T14:16:42.553Z,31.54
2018-09-28T14:19:13.698Z,30.94
2018-09-28T14:21:44.696Z,30.76
2018-09-28T14:24:15.962Z,30.46
2018-09-28T14:26:49.826Z,30.69
2018-09-28T14:29:23.665Z,30.70
2018-09-28T14:31:54.999Z,30.52
2018-09-28T14:34:25.385Z,30.93
2018-09-28T14:36:55.856Z,30.70
2018-09-28T14:39:26.591Z,30.41
2018-09-28T14:41:57.082Z,29.94
2018-09-28T14:44:27.356Z,29.82
2018-09-28T14:46:57.483Z,29.89
2018-09-28T14:49:29.301Z,29.44
2018-09-28T14:52:00.057Z,29.09
2018-09-28T14:54:31.385Z,28.98
2018-09-28T14:57:01.694Z,29.20
2018-09-28T14:59:32.226Z,29.18
2018-09-28T15:02:03.667Z,29.14
2018-09-28T15:04:34.874Z,29.39
2018-09-28T15:07:05.394Z,29.46
2018-09-28T15:09:35.502Z,28.97
2018-09-28T15:12:05.985Z,28.74
2018-09-28T15:14:39.168Z,28.35
2018-09-28T15:17:10.494Z,28.01
2018-09-28T15:19:42.671Z,27.82
2018-09-28T15:22:14.329Z,27.91
2018-09-28T15:24:45.300Z,27.55
2018-09-28T15:27:15.439Z,27.18
2018-09-28T15:29:45.911Z,27.17
2018-09-28T15:32:16.457Z,26.75
2018-09-28T15:34:46.656Z,26.18
2018-09-28T15:37:17.870Z,25.60
2018-09-28T15:39:48.400Z,25.41
2018-09-28T15:42:18.875Z,25.23
2018-09-28T15:44:50.280Z,24.03
2018-09-28T15:47:21.359Z,22.76
2018-09-28T15:49:52.946Z,21.82
2018-09-28T15:52:23.697Z,21.92
2018-09-28T15:54:55.243Z,22.18
2018-09-28T15:57:26.549Z,22.07
2018-09-28T15:59:58.305Z,21.96
2018-09-28T16:02:29.715Z,21.80
2018-09-28T16:05:00.139Z,21.00
2018-09-28T16:07:30.404Z,20.41
2018-09-28T16:10:01.014Z,20.19
2018-09-28T16:12:32.144Z,20.00
2018-09-28T16:15:02.479Z,19.86
2018-09-28T16:17:34.232Z,19.61
2018-09-28T16:20:05.291Z,19.19
2018-09-28T16:22:36.680Z,19.06
2018-09-28T16:25:08.177Z,18.91
2018-09-28T16:27:39.284Z,18.81
2018-09-28T16:30:09.422Z,18.67
2018-09-28T16:32:40.135Z,18.56
2018-09-28T16:35:10.978Z,18.45
2018-09-28T16:37:42.303Z,18.32
2018-09-28T16:40:16.407Z,18.23
2018-09-28T16:42:47.583Z,18.15
2018-09-28T16:45:18.523Z,18.06
2018-09-28T16:47:51.194Z,18.00
2018-09-28T16:50:22.666Z,17.87
2018-09-28T16:52:55.572Z,17.69
2018-09-28T16:55:28.432Z,17.62
2018-09-28T16:58:00.124Z,17.62
2018-09-28T17:00:33.822Z,17.53
2018-09-28T17:03:04.904Z,17.43
2018-09-28T17:05:35.827Z,17.33
2018-09-28T17:08:06.129Z,17.23
2018-09-28T17:10:37.598Z,17.03
2018-09-28T17:13:09.391Z,16.94
2018-09-28T17:15:40.493Z,16.83
2018-09-28T17:18:10.994Z,16.73
2018-09-28T17:20:41.293Z,16.67
2018-09-28T17:23:13.018Z,16.63
2018-09-28T17:25:43.631Z,16.52
2018-09-28T17:28:15.629Z,16.42
2018-09-28T17:30:46.733Z,16.36
2018-09-28T17:33:18.009Z,16.27
2018-09-28T17:35:48.468Z,16.17
2018-09-28T17:38:18.656Z,16.13
2018-09-28T17:40:50.302Z,16.11
2018-09-28T17:43:22.685Z,16.06
2018-09-28T17:45:54.317Z,15.99
2018-09-28T17:48:28.306Z,15.86
2018-09-28T17:50:58.831Z,15.77
2018-09-28T17:53:29.707Z,15.68
2018-09-28T17:56:02.075Z,15.60
2018-09-28T17:58:33.092Z,15.60
2018-09-28T18:01:03.257Z,15.52
2018-09-28T18:03:33.882Z,15.52
2018-09-28T18:06:06.954Z,15.49
2018-09-28T18:08:39.366Z,15.50
2018-09-28T18:11:10.487Z,15.44
2018-09-28T18:13:40.946Z,15.36
2018-09-28T18:16:18.615Z,15.31
2018-09-28T18:18:50.817Z,15.31
2018-09-28T18:21:23.193Z,15.31
2018-09-28T18:23:55.004Z,15.32
2018-09-28T18:26:25.383Z,15.31
2018-09-28T18:28:58.945Z,15.29
2018-09-28T18:31:29.627Z,15.26
2018-09-28T18:34:01.425Z,15.23
2018-09-28T18:36:32.284Z,15.15
2018-09-28T18:39:07.447Z,15.11
2018-09-28T18:41:39.242Z,15.10
2018-09-28T18:44:12.757Z,15.03
2018-09-28T18:46:46.894Z,14.97
2018-09-28T18:49:26.330Z,14.91
2018-09-28T18:51:57.944Z,14.82
2018-09-28T18:54:31.602Z,14.82
2018-09-28T18:57:03.354Z,14.74
2018-09-28T18:59:34.910Z,14.75
2018-09-28T19:02:07.666Z,14.59
2018-09-28T19:04:40.570Z,14.54
2018-09-28T19:07:12.561Z,14.42
2018-09-28T19:09:46.808Z,14.35
2018-09-28T19:12:17.176Z,14.29
2018-09-28T19:14:47.592Z,14.17
2018-09-28T19:17:23.405Z,14.09
2018-09-28T19:19:55.902Z,14.02
2018-09-28T19:22:30.973Z,14.00
2018-09-28T19:25:02.732Z,13.99
2018-09-28T19:27:33.958Z,14.00
2018-09-28T19:30:11.253Z,14.01
2018-09-28T19:32:47.032Z,13.98
2018-09-28T19:35:18.781Z,13.93
2018-09-28T19:37:49.128Z,13.92
2018-09-28T19:40:19.869Z,13.86
2018-09-28T19:42:50.034Z,13.81
2018-09-28T19:45:21.354Z,13.78
2018-09-28T19:47:56.211Z,13.74
2018-09-28T19:50:26.386Z,13.69
2018-09-28T19:52:57.665Z,13.65
2018-09-28T19:55:28.484Z,13.66
2018-09-28T19:57:59.268Z,13.67
2018-09-28T20:00:31.526Z,13.63
2018-09-28T20:03:04.015Z,13.58
2018-09-28T20:05:37.202Z,13.53
2018-09-28T20:08:08.188Z,13.50
2018-09-28T20:10:40.689Z,13.45
2018-09-28T20:13:11.159Z,13.44
2018-09-28T20:15:44.313Z,13.46
2018-09-28T20:18:14.553Z,13.43
2018-09-28T20:20:46.862Z,13.43
2018-09-28T20:23:18.321Z,13.44
2018-09-28T20:25:49.958Z,13.40
2018-09-28T20:28:20.472Z,13.38
2018-09-28T20:30:52.618Z,13.33
2018-09-28T20:33:28.315Z,13.31
2018-09-28T20:35:59.730Z,13.28
2018-09-28T20:38:31.409Z,13.25
2018-09-28T20:41:03.880Z,13.24
2018-09-28T20:43:34.910Z,13.25
2018-09-28T20:46:06.187Z,13.22
2018-09-28T20:48:37.864Z,13.20
2018-09-28T20:51:10.534Z,13.16
2018-09-28T20:53:41.312Z,13.14
2018-09-28T20:56:11.886Z,13.15
2018-09-28T20:58:43.270Z,13.16
2018-09-28T21:01:15.972Z,13.12
2018-09-28T21:03:47.025Z,13.08
2018-09-28T21:06:19.306Z,12.98
2018-09-28T21:08:51.798Z,12.91
2018-09-28T21:11:24.144Z,12.88
2018-09-28T21:13:57.028Z,12.90
2018-09-28T21:16:28.761Z,12.87
2018-09-28T21:19:00.677Z,12.85
2018-09-28T21:21:31.567Z,12.80
2018-09-28T21:24:02.819Z,12.74
2018-09-28T21:26:33.829Z,12.70
2018-09-28T21:29:05.235Z,12.69
2018-09-28T21:31:36.263Z,12.69
2018-09-28T21:34:06.542Z,12.69
2018-09-28T21:36:37.339Z,12.71
2018-09-28T21:39:09.470Z,12.72
2018-09-28T21:41:45.133Z,12.74
2018-09-28T21:44:15.404Z,12.73
2018-09-28T21:46:48.473Z,12.74
2018-09-28T21:49:19.490Z,12.72
2018-09-28T21:51:51.728Z,12.67
2018-09-28T21:54:24.202Z,12.66
2018-09-28T21:56:54.598Z,12.62
2018-09-28T21:59:25.557Z,12.58
2018-09-28T22:01:59.303Z,12.56
2018-09-28T22:04:32.429Z,12.55
2018-09-28T22:07:04.376Z,12.51
2018-09-28T22:09:35.774Z,12.46
2018-09-28T22:12:07.059Z,12.39
2018-09-28T22:14:39.474Z,12.28
2018-09-28T22:17:09.938Z,12.22
2018-09-28T22:19:41.850Z,12.21
2018-09-28T22:22:15.740Z,12.22
2018-09-28T22:24:48.287Z,12.20
2018-09-28T22:27:18.438Z,12.17
2018-09-28T22:29:50.438Z,12.10
2018-09-28T22:32:21.505Z,12.04
2018-09-28T22:34:54.672Z,11.96
2018-09-28T22:37:27.084Z,11.84
2018-09-28T22:40:00.312Z,11.58
2018-09-28T22:42:31.891Z,11.35
2018-09-28T22:45:03.721Z,11.16
2018-09-28T22:47:35.219Z,11.04
2018-09-28T22:50:08.030Z,11.01
2018-09-28T22:52:39.391Z,10.97
2018-09-28T22:55:12.477Z,10.90
2018-09-28T22:57:42.619Z,10.80
2018-09-28T23:00:14.865Z,10.65
2018-09-28T23:02:47.157Z,10.52
2018-09-28T23:05:19.541Z,10.49
2018-09-28T23:07:52.069Z,10.44
2018-09-28T23:10:24.995Z,10.33
2018-09-28T23:12:57.331Z,10.36
2018-09-28T23:15:28.309Z,10.27
2018-09-28T23:18:00.781Z,10.19
2018-09-28T23:20:31.667Z,10.14
2018-09-28T23:23:04.392Z,10.04
2018-09-28T23:25:34.569Z,9.92
2018-09-28T23:28:05.463Z,9.92
2018-09-28T23:30:44.333Z,9.79
2018-09-28T23:33:15.881Z,9.67
2018-09-28T23:35:48.425Z,9.61
2018-09-28T23:38:19.862Z,9.65
2018-09-28T23:40:52.197Z,9.55
2018-09-28T23:43:23.636Z,9.46
2018-09-28T23:45:54.706Z,9.33
2018-09-28T23:48:24.891Z,9.33
2018-09-28T23:50:57.790Z,9.26
2018-09-28T23:53:30.567Z,9.14
2018-09-28T23:56:03.200Z,9.02
2018-09-28T23:58:37.661Z,8.99
